Roanoke, Texas
Current Conditions -  °F | °C
As of 12:53 AM on Friday 31 Oct 2014 (Local Time) from KAFW Reporting Station
Clear Clear  
Wind Chill: 54°   Ceiling: Unl
Heat Index: 54°   Visibility: 10mi
Dew Point: 44°   Wind: 3mph
Humidity: 69%   Direction: 350°N
Pressure: 30.19"   Gusts: NA
Location:  33°N, 97.23°W
Report Text: KAFW 310553Z 35003KT 10SM CLR 12/07 A3019 RMK AO2 SLP216 T01220067 10217 20122 402610083 51016
Loading
Personal Weather Stations






























Interactive Weather Map
Tropical Storm Tracking
New forecast layout! Learn more

10-Day Weather Forecast

Advertisements
Track Severe Weather on mobile